Time;durP1;ratioP1;P1;durP2;ratioP2;P2;SDS_P1;SDS_P2;PMS_P1;PMS_P2;Temp;Humidity;BMP_temperature;BMP_pressure;BME280_temperature;BME280_humidity;BME280_pressure;Samples;Min_cycle;Max_cycle;Signal;HPM_P1;HPM_P2
2022/06/30 00:00:14;;;;;;;2.30;2.10;;;;;;;;;;5031994;28;20574;-56
2022/06/30 00:02:40;;;;;;;4.65;2.30;;;;;;;;;;5030861;28;20411;-56
2022/06/30 00:05:07;;;;;;;2.80;1.97;;;;;;;;;;5031978;28;20204;-55
2022/06/30 00:07:33;;;;;;;2.20;1.90;;;;;;;;;;5031975;28;20296;-55
2022/06/30 00:09:59;;;;;;;3.70;2.10;;;;;;;;;;5032094;28;20551;-56
2022/06/30 00:12:27;;;;;;;3.17;2.00;;;;;;;;;;5032140;28;20200;-55
2022/06/30 00:14:53;;;;;;;2.97;1.90;;;;;;;;;;5031798;28;20608;-56
2022/06/30 00:17:19;;;;;;;2.13;1.73;;;;;;;;;;5031848;28;20654;-56
2022/06/30 00:19:45;;;;;;;2.30;2.10;;;;;;;;;;5031906;28;20196;-56
2022/06/30 00:22:11;;;;;;;2.93;1.90;;;;;;;;;;5031809;28;20695;-56
2022/06/30 00:24:37;;;;;;;3.27;2.17;;;;;;;;;;5031769;28;20200;-56
2022/06/30 00:27:04;;;;;;;2.60;2.07;;;;;;;;;;5031281;28;20255;-56
2022/06/30 00:29:31;;;;;;;2.23;1.80;;;;;;;;;;5031429;28;20211;-55
2022/06/30 00:31:57;;;;;;;5.57;2.00;;;;;;;;;;5033367;28;20216;-55
2022/06/30 00:34:23;;;;;;;2.60;1.90;;;;;;;;;;5035568;28;20195;-56
2022/06/30 00:36:49;;;;;;;8.00;2.07;;;;;;;;;;5035144;28;20239;-55
2022/06/30 00:39:15;;;;;;;2.80;2.00;;;;;;;;;;5035148;28;20251;-55
2022/06/30 00:41:42;;;;;;;3.40;2.47;;;;;;;;;;5035333;28;20198;-56
2022/06/30 00:44:11;;;;;;;2.93;2.30;;;;;;;;;;5035209;28;20330;-56
2022/06/30 00:46:38;;;;;;;2.40;2.10;;;;;;;;;;5035384;28;20279;-56
2022/06/30 00:49:04;;;;;;;3.43;2.17;;;;;;;;;;5035002;28;20230;-56
2022/06/30 00:51:30;;;;;;;4.03;2.20;;;;;;;;;;5035145;28;20693;-56
2022/06/30 00:53:56;;;;;;;12.03;2.67;;;;;;;;;;5035216;28;20213;-55
2022/06/30 00:56:26;;;;;;;2.67;1.83;;;;;;;;;;5035209;28;20693;-56
2022/06/30 00:58:53;;;;;;;2.40;2.20;;;;;;;;;;5035062;28;20206;-56
2022/06/30 01:01:19;;;;;;;2.47;2.10;;;;;;;;;;5035065;28;20217;-56
2022/06/30 01:03:47;;;;;;;4.10;2.20;;;;;;;;;;5034880;28;20200;-55
2022/06/30 01:06:13;;;;;;;3.60;2.00;;;;;;;;;;5034876;28;20303;-56
2022/06/30 01:08:39;;;;;;;2.50;2.20;;;;;;;;;;5035033;28;20211;-56
2022/06/30 01:13:50;;;;;;;4.03;2.20;;;;;;;;;;5034764;28;20274;-55
2022/06/30 01:16:19;;;;;;;5.00;2.30;;;;;;;;;;5034454;28;20687;-56
2022/06/30 01:18:46;;;;;;;2.77;2.10;;;;;;;;;;5034683;28;20760;-55
2022/06/30 01:21:12;;;;;;;3.80;2.27;;;;;;;;;;5034550;28;20233;-55
2022/06/30 01:23:40;;;;;;;3.73;2.33;;;;;;;;;;5034578;28;20208;-55
2022/06/30 01:26:06;;;;;;;3.20;2.43;;;;;;;;;;5034564;28;20235;-55
2022/06/30 01:28:32;;;;;;;2.53;2.20;;;;;;;;;;5034485;28;20202;-56
2022/06/30 01:30:58;;;;;;;2.43;2.23;;;;;;;;;;5034278;28;20209;-55
2022/06/30 01:33:24;;;;;;;2.07;1.87;;;;;;;;;;5034407;28;20262;-55
2022/06/30 01:35:50;;;;;;;3.50;2.10;;;;;;;;;;5034070;28;20720;-56
2022/06/30 01:38:17;;;;;;;3.20;2.27;;;;;;;;;;5034176;28;20207;-55
2022/06/30 01:40:45;;;;;;;3.43;2.53;;;;;;;;;;5034281;28;20226;-56
2022/06/30 01:43:12;;;;;;;3.20;2.30;;;;;;;;;;5033100;28;20668;-55
2022/06/30 01:45:39;;;;;;;2.60;2.40;;;;;;;;;;5034252;28;20190;-55
2022/06/30 01:48:06;;;;;;;3.97;2.50;;;;;;;;;;5034064;28;20210;-55
2022/06/30 01:50:32;;;;;;;3.30;2.33;;;;;;;;;;5033881;28;20199;-55
2022/06/30 01:52:59;;;;;;;3.27;2.30;;;;;;;;;;5033912;28;20209;-55
2022/06/30 01:55:25;;;;;;;2.73;2.20;;;;;;;;;;5034207;28;20226;-55
2022/06/30 01:57:53;;;;;;;2.70;2.50;;;;;;;;;;5034117;28;20647;-56
2022/06/30 02:00:20;;;;;;;4.97;2.47;;;;;;;;;;5033735;28;20495;-56
2022/06/30 02:02:46;;;;;;;3.77;2.53;;;;;;;;;;5033913;28;20222;-55
2022/06/30 02:05:12;;;;;;;3.47;2.10;;;;;;;;;;5034035;28;20203;-56
2022/06/30 02:07:39;;;;;;;3.03;2.80;;;;;;;;;;5033852;28;20200;-56
2022/06/30 02:10:06;;;;;;;2.70;2.50;;;;;;;;;;5033791;28;20575;-55
2022/06/30 02:12:44;;;;;;;3.73;2.53;;;;;;;;;;5033661;28;20247;-56
2022/06/30 02:15:13;;;;;;;4.30;2.77;;;;;;;;;;5033937;28;20228;-55
2022/06/30 02:17:39;;;;;;;2.83;2.27;;;;;;;;;;5033339;28;20225;-56
2022/06/30 02:20:07;;;;;;;3.00;2.37;;;;;;;;;;5033792;28;20202;-56
2022/06/30 02:22:33;;;;;;;5.20;2.43;;;;;;;;;;5033516;28;20329;-55
2022/06/30 02:24:59;;;;;;;4.03;2.50;;;;;;;;;;5033337;28;20209;-55
2022/06/30 02:27:25;;;;;;;5.20;2.70;;;;;;;;;;5033413;28;20210;-55
2022/06/30 02:29:51;;;;;;;2.70;2.50;;;;;;;;;;5033387;28;20202;-55
2022/06/30 02:32:19;;;;;;;3.70;2.50;;;;;;;;;;5033275;28;20278;-55
2022/06/30 02:34:45;;;;;;;3.10;2.43;;;;;;;;;;5033456;28;20743;-55
2022/06/30 02:37:11;;;;;;;2.87;2.53;;;;;;;;;;5032939;28;20245;-54
2022/06/30 02:39:38;;;;;;;6.10;2.60;;;;;;;;;;5033266;28;20208;-55
2022/06/30 02:42:04;;;;;;;4.33;2.50;;;;;;;;;;5032859;28;20693;-56
2022/06/30 02:44:30;;;;;;;2.80;2.53;;;;;;;;;;5032996;28;20239;-55
2022/06/30 02:46:56;;;;;;;3.13;2.50;;;;;;;;;;5033089;28;20225;-55
2022/06/30 02:49:24;;;;;;;2.80;2.40;;;;;;;;;;5032809;28;20233;-55
2022/06/30 02:51:50;;;;;;;2.37;2.17;;;;;;;;;;5032753;28;20211;-55
2022/06/30 02:54:16;;;;;;;3.03;2.80;;;;;;;;;;5032488;28;20206;-55
2022/06/30 02:56:43;;;;;;;2.63;2.43;;;;;;;;;;5033106;28;20612;-55
2022/06/30 02:59:09;;;;;;;3.00;2.70;;;;;;;;;;5032658;28;20205;-55
2022/06/30 03:01:35;;;;;;;3.17;2.30;;;;;;;;;;5032904;28;20237;-55
2022/06/30 03:04:02;;;;;;;3.93;2.30;;;;;;;;;;5032631;28;20198;-55
2022/06/30 03:06:29;;;;;;;3.13;2.83;;;;;;;;;;5032891;28;20281;-55
2022/06/30 03:08:55;;;;;;;2.87;2.30;;;;;;;;;;5032814;28;20206;-55
2022/06/30 03:11:21;;;;;;;3.80;2.60;;;;;;;;;;5032466;28;20288;-55
2022/06/30 03:13:47;;;;;;;7.00;2.80;;;;;;;;;;5032505;28;20230;-55
2022/06/30 03:16:13;;;;;;;3.20;2.90;;;;;;;;;;5032369;28;20769;-54
2022/06/30 03:18:40;;;;;;;3.90;2.80;;;;;;;;;;5032623;28;20201;-55
2022/06/30 03:21:06;;;;;;;2.70;2.47;;;;;;;;;;5032319;28;20279;-55
2022/06/30 03:23:33;;;;;;;3.67;2.60;;;;;;;;;;5032327;28;20197;-55
2022/06/30 03:25:59;;;;;;;2.50;2.30;;;;;;;;;;5032211;28;20596;-55
2022/06/30 03:28:25;;;;;;;2.90;2.60;;;;;;;;;;5032314;28;20204;-55
2022/06/30 03:30:51;;;;;;;2.70;2.50;;;;;;;;;;5032344;28;20209;-55
2022/06/30 03:33:18;;;;;;;3.10;2.50;;;;;;;;;;5032273;28;20256;-55
2022/06/30 03:35:44;;;;;;;4.33;2.47;;;;;;;;;;5031930;28;20264;-55
2022/06/30 03:38:10;;;;;;;4.13;2.60;;;;;;;;;;5032231;28;20224;-55
2022/06/30 03:40:38;;;;;;;4.00;2.80;;;;;;;;;;5032211;28;20197;-55
2022/06/30 03:43:04;;;;;;;3.80;2.80;;;;;;;;;;5031884;28;20622;-55
2022/06/30 03:45:30;;;;;;;4.13;2.60;;;;;;;;;;5031840;28;20681;-55
2022/06/30 03:47:56;;;;;;;3.40;2.63;;;;;;;;;;5031966;28;20193;-54
2022/06/30 03:50:22;;;;;;;3.10;2.47;;;;;;;;;;5031892;28;20206;-56
2022/06/30 03:52:48;;;;;;;5.13;2.77;;;;;;;;;;5032032;28;20197;-55
2022/06/30 03:55:14;;;;;;;4.40;2.60;;;;;;;;;;5032467;28;20706;-55
2022/06/30 03:57:41;;;;;;;5.53;2.33;;;;;;;;;;5032076;28;20220;-55
2022/06/30 04:00:08;;;;;;;5.87;2.50;;;;;;;;;;5031647;28;20665;-55
2022/06/30 04:02:34;;;;;;;5.17;2.60;;;;;;;;;;5031857;28;20212;-55
2022/06/30 04:05:00;;;;;;;3.80;2.63;;;;;;;;;;5031581;28;20198;-55
2022/06/30 04:07:26;;;;;;;4.97;2.50;;;;;;;;;;5034579;28;20237;-55
2022/06/30 04:09:52;;;;;;;3.33;2.90;;;;;;;;;;5035977;28;20205;-55
2022/06/30 04:12:18;;;;;;;3.60;2.90;;;;;;;;;;5035783;28;20204;-55
2022/06/30 04:14:45;;;;;;;3.20;2.57;;;;;;;;;;5035764;28;20266;-54
2022/06/30 04:17:11;;;;;;;5.10;2.73;;;;;;;;;;5035789;28;20222;-55
2022/06/30 04:19:37;;;;;;;3.07;2.60;;;;;;;;;;5035986;28;20209;-55
2022/06/30 04:22:03;;;;;;;2.93;2.40;;;;;;;;;;5035652;28;20676;-54
2022/06/30 04:24:29;;;;;;;3.23;2.53;;;;;;;;;;5035594;28;20212;-54
2022/06/30 04:26:55;;;;;;;3.53;2.50;;;;;;;;;;5035586;28;20224;-54
2022/06/30 04:29:21;;;;;;;2.60;2.30;;;;;;;;;;5035433;28;20204;-56
2022/06/30 04:34:33;;;;;;;3.20;2.40;;;;;;;;;;5035555;28;20204;-55
2022/06/30 04:36:59;;;;;;;5.87;2.10;;;;;;;;;;5035047;28;20238;-55
2022/06/30 04:39:25;;;;;;;3.57;2.43;;;;;;;;;;5035462;28;20699;-55
2022/06/30 04:41:51;;;;;;;3.43;2.40;;;;;;;;;;5035225;28;20654;-55
2022/06/30 04:44:17;;;;;;;2.70;2.50;;;;;;;;;;5035061;28;20213;-55
2022/06/30 04:46:43;;;;;;;5.07;2.43;;;;;;;;;;5035379;28;20210;-55
2022/06/30 04:49:11;;;;;;;4.10;2.53;;;;;;;;;;5035047;28;20675;-56
2022/06/30 04:51:37;;;;;;;4.23;2.27;;;;;;;;;;5035254;28;20557;-55
2022/06/30 04:54:03;;;;;;;3.80;2.57;;;;;;;;;;5035223;28;20199;-55
2022/06/30 04:56:30;;;;;;;3.00;2.70;;;;;;;;;;5034849;28;20714;-55
2022/06/30 04:58:57;;;;;;;2.73;2.30;;;;;;;;;;5034969;28;20207;-55
2022/06/30 05:01:23;;;;;;;5.10;2.60;;;;;;;;;;5035032;28;20211;-55
2022/06/30 05:03:49;;;;;;;2.90;2.60;;;;;;;;;;5034748;28;20218;-55
2022/06/30 05:06:16;;;;;;;4.00;2.60;;;;;;;;;;5034793;28;20267;-54
2022/06/30 05:08:42;;;;;;;4.57;2.60;;;;;;;;;;5034931;28;20576;-54
2022/06/30 05:11:08;;;;;;;2.93;2.63;;;;;;;;;;5034718;28;20205;-55
2022/06/30 05:13:34;;;;;;;4.47;2.80;;;;;;;;;;5034760;28;20204;-56
2022/06/30 05:16:01;;;;;;;3.77;2.60;;;;;;;;;;5034386;28;20227;-55
2022/06/30 05:18:28;;;;;;;3.80;2.67;;;;;;;;;;5034067;28;20620;-54
2022/06/30 05:20:53;;;;;;;5.93;2.93;;;;;;;;;;5034351;28;20261;-53
2022/06/30 05:23:21;;;;;;;4.80;2.80;;;;;;;;;;5034296;28;20645;-54
2022/06/30 05:28:32;;;;;;;3.60;2.73;;;;;;;;;;5034156;28;20550;-54
2022/06/30 05:30:58;;;;;;;3.00;2.70;;;;;;;;;;5034217;28;20735;-54
2022/06/30 05:33:24;;;;;;;5.07;2.80;;;;;;;;;;5034144;28;20661;-54
2022/06/30 05:35:51;;;;;;;5.40;2.73;;;;;;;;;;5034047;28;20291;-54
2022/06/30 05:38:17;;;;;;;3.30;3.00;;;;;;;;;;5034116;28;20620;-54
2022/06/30 05:40:47;;;;;;;2.80;2.60;;;;;;;;;;5034136;28;20208;-54
2022/06/30 05:43:13;;;;;;;2.87;2.63;;;;;;;;;;5033922;28;20279;-53
2022/06/30 05:45:40;;;;;;;3.23;2.93;;;;;;;;;;5034165;28;20201;-54
2022/06/30 05:48:06;;;;;;;4.60;2.90;;;;;;;;;;5033712;28;20204;-54
2022/06/30 05:50:32;;;;;;;5.60;2.90;;;;;;;;;;5033869;28;20203;-55
2022/06/30 05:52:58;;;;;;;3.00;2.70;;;;;;;;;;5033966;28;20189;-54
2022/06/30 05:55:24;;;;;;;4.10;2.80;;;;;;;;;;5033871;28;20193;-54
2022/06/30 05:57:55;;;;;;;3.37;2.77;;;;;;;;;;5034180;28;20220;-54
2022/06/30 06:00:22;;;;;;;4.50;3.03;;;;;;;;;;5034130;28;20215;-54
2022/06/30 06:02:48;;;;;;;3.83;2.77;;;;;;;;;;5034010;28;20214;-55
2022/06/30 06:05:14;;;;;;;6.53;2.73;;;;;;;;;;5033514;28;20640;-55
2022/06/30 06:07:40;;;;;;;6.23;2.90;;;;;;;;;;5033856;28;20220;-54
2022/06/30 06:10:07;;;;;;;3.40;2.80;;;;;;;;;;5033409;28;20211;-54
2022/06/30 06:12:33;;;;;;;3.63;3.03;;;;;;;;;;5033613;28;20547;-54
2022/06/30 06:15:00;;;;;;;3.40;3.10;;;;;;;;;;5033155;28;20254;-54
2022/06/30 06:17:26;;;;;;;4.63;3.20;;;;;;;;;;5033088;28;20237;-54
2022/06/30 06:19:52;;;;;;;4.07;3.43;;;;;;;;;;5033195;28;20307;-56
2022/06/30 06:22:18;;;;;;;4.53;3.10;;;;;;;;;;5033194;28;20189;-54
2022/06/30 06:24:44;;;;;;;3.40;3.10;;;;;;;;;;5033241;28;20255;-56
2022/06/30 06:27:10;;;;;;;3.80;3.20;;;;;;;;;;5033133;28;20305;-55
2022/06/30 06:29:36;;;;;;;4.00;3.30;;;;;;;;;;5032617;28;20239;-55
2022/06/30 06:32:04;;;;;;;4.50;3.57;;;;;;;;;;5033312;28;20651;-55
2022/06/30 06:34:30;;;;;;;5.63;3.50;;;;;;;;;;5033570;28;20205;-55
2022/06/30 06:36:56;;;;;;;5.30;3.80;;;;;;;;;;5033262;28;20237;-56
2022/06/30 06:39:22;;;;;;;4.20;3.60;;;;;;;;;;5033064;28;20735;-55
2022/06/30 06:41:48;;;;;;;3.60;3.30;;;;;;;;;;5032859;28;20205;-55
2022/06/30 06:44:14;;;;;;;4.00;3.60;;;;;;;;;;5032654;28;20266;-56
2022/06/30 06:46:40;;;;;;;5.00;3.70;;;;;;;;;;5032960;28;20228;-55
2022/06/30 06:49:08;;;;;;;4.43;3.20;;;;;;;;;;5032889;28;20201;-55
2022/06/30 06:51:34;;;;;;;3.70;3.40;;;;;;;;;;5032470;28;20189;-55
2022/06/30 06:54:00;;;;;;;5.87;3.77;;;;;;;;;;5032877;28;20201;-55
2022/06/30 06:56:27;;;;;;;7.07;3.70;;;;;;;;;;5032818;28;20236;-55
2022/06/30 06:58:53;;;;;;;6.03;3.80;;;;;;;;;;5032837;28;20216;-56
2022/06/30 07:01:19;;;;;;;3.57;3.27;;;;;;;;;;5032739;28;20205;-55
2022/06/30 07:03:45;;;;;;;3.83;3.40;;;;;;;;;;5032825;28;20671;-56
2022/06/30 07:06:12;;;;;;;5.60;3.73;;;;;;;;;;5032647;28;20207;-56
2022/06/30 07:08:39;;;;;;;4.90;3.60;;;;;;;;;;5030871;28;20202;-56
2022/06/30 07:11:05;;;;;;;4.60;3.43;;;;;;;;;;5032544;28;20236;-55
2022/06/30 07:13:31;;;;;;;4.70;3.53;;;;;;;;;;5032583;28;20193;-55
2022/06/30 07:15:57;;;;;;;8.80;3.90;;;;;;;;;;5032448;28;20274;-54
2022/06/30 07:18:23;;;;;;;4.53;3.67;;;;;;;;;;5032368;28;20303;-54
2022/06/30 07:20:50;;;;;;;6.43;3.93;;;;;;;;;;5032726;28;20234;-54
2022/06/30 07:23:17;;;;;;;4.30;3.90;;;;;;;;;;5032290;28;20638;-53
2022/06/30 07:25:43;;;;;;;4.73;4.27;;;;;;;;;;5032511;28;20629;-53
2022/06/30 07:28:09;;;;;;;9.63;4.50;;;;;;;;;;5032293;28;20199;-54
2022/06/30 07:30:35;;;;;;;5.13;4.53;;;;;;;;;;5034493;28;20294;-56
2022/06/30 07:33:01;;;;;;;4.50;4.10;;;;;;;;;;5052189;28;20649;-56
2022/06/30 07:35:27;;;;;;;5.07;4.57;;;;;;;;;;5051853;28;20253;-56
2022/06/30 07:37:53;;;;;;;5.50;4.93;;;;;;;;;;5050520;28;20229;-55
2022/06/30 07:40:20;;;;;;;4.67;4.13;;;;;;;;;;5052022;28;20198;-55
2022/06/30 07:42:48;;;;;;;5.47;4.30;;;;;;;;;;5052130;28;20207;-56
2022/06/30 07:45:14;;;;;;;5.63;4.03;;;;;;;;;;5051997;28;20205;-56
2022/06/30 07:47:42;;;;;;;5.17;4.13;;;;;;;;;;5052052;28;20256;-56
2022/06/30 07:50:09;;;;;;;4.00;3.60;;;;;;;;;;5051974;28;20187;-56
2022/06/30 07:52:35;;;;;;;4.37;3.83;;;;;;;;;;5052113;28;20237;-56
2022/06/30 07:55:01;;;;;;;5.83;3.73;;;;;;;;;;5051866;28;20200;-55
2022/06/30 07:57:28;;;;;;;4.57;4.00;;;;;;;;;;5051717;28;20221;-55
2022/06/30 07:59:54;;;;;;;4.10;3.70;;;;;;;;;;5052027;28;20199;-57
2022/06/30 08:02:20;;;;;;;4.30;3.90;;;;;;;;;;5051783;28;20199;-54
2022/06/30 08:04:46;;;;;;;4.33;3.90;;;;;;;;;;5051912;28;20607;-54
2022/06/30 08:07:12;;;;;;;5.03;4.00;;;;;;;;;;5051772;28;20192;-54
2022/06/30 08:09:38;;;;;;;4.40;4.00;;;;;;;;;;5051837;28;20203;-54
2022/06/30 08:12:06;;;;;;;5.20;3.97;;;;;;;;;;5051402;28;20204;-55
2022/06/30 08:14:34;;;;;;;4.13;3.83;;;;;;;;;;5051665;28;20223;-54
2022/06/30 08:17:00;;;;;;;4.17;3.83;;;;;;;;;;5051659;28;20278;-54
2022/06/30 08:19:26;;;;;;;4.03;3.63;;;;;;;;;;5051758;28;20204;-54
2022/06/30 08:21:52;;;;;;;3.67;3.37;;;;;;;;;;5051850;28;20198;-54
2022/06/30 08:24:18;;;;;;;4.53;4.13;;;;;;;;;;5052015;28;20467;-54
2022/06/30 08:26:44;;;;;;;4.30;3.90;;;;;;;;;;5051941;28;20703;-54
2022/06/30 08:29:12;;;;;;;4.70;4.30;;;;;;;;;;5051696;28;20209;-54
2022/06/30 08:31:40;;;;;;;4.10;3.80;;;;;;;;;;5051609;28;20209;-54
2022/06/30 08:34:06;;;;;;;4.00;3.70;;;;;;;;;;5051514;28;20205;-52
2022/06/30 08:36:32;;;;;;;4.40;4.00;;;;;;;;;;5050874;28;20247;-53
2022/06/30 08:38:58;;;;;;;5.60;4.00;;;;;;;;;;5051481;28;20202;-53
2022/06/30 08:44:09;;;;;;;4.40;3.80;;;;;;;;;;5051561;28;20198;-54
2022/06/30 08:46:37;;;;;;;4.33;3.93;;;;;;;;;;5051416;28;20201;-54
2022/06/30 08:49:04;;;;;;;4.73;4.33;;;;;;;;;;5051290;28;20204;-54
2022/06/30 08:51:33;;;;;;;5.73;4.40;;;;;;;;;;5051254;28;20310;-53
2022/06/30 08:54:00;;;;;;;4.57;4.17;;;;;;;;;;5054468;28;20227;-53
2022/06/30 08:56:28;;;;;;;4.77;4.27;;;;;;;;;;5054707;28;20572;-53
2022/06/30 08:58:55;;;;;;;4.47;4.00;;;;;;;;;;5053244;28;20222;-54
2022/06/30 09:01:22;;;;;;;4.43;4.03;;;;;;;;;;5054968;28;20207;-55
2022/06/30 09:03:48;;;;;;;4.77;4.30;;;;;;;;;;5054752;28;20273;-54
2022/06/30 09:06:15;;;;;;;5.50;4.53;;;;;;;;;;5053562;28;20820;-55
2022/06/30 09:08:41;;;;;;;4.50;4.10;;;;;;;;;;5054870;28;20565;-55
2022/06/30 09:11:07;;;;;;;5.23;4.30;;;;;;;;;;5054696;28;20196;-55
2022/06/30 09:13:40;;;;;;;4.57;4.17;;;;;;;;;;5054144;28;20263;-55
2022/06/30 09:16:06;;;;;;;4.63;4.20;;;;;;;;;;5054788;28;20243;-55
2022/06/30 09:18:32;;;;;;;4.97;4.40;;;;;;;;;;5054744;28;20212;-55
2022/06/30 09:20:59;;;;;;;5.07;4.67;;;;;;;;;;5054796;28;20208;-55
2022/06/30 09:23:27;;;;;;;5.70;4.27;;;;;;;;;;5054222;28;20194;-55
2022/06/30 09:25:53;;;;;;;4.70;4.20;;;;;;;;;;5054450;28;20273;-55
2022/06/30 09:28:37;;;;;;;5.27;3.93;;;;;;;;;;5054144;28;20244;-52
2022/06/30 09:31:03;;;;;;;4.97;4.50;;;;;;;;;;5054045;28;20213;-52
2022/06/30 09:33:34;;;;;;;4.50;4.10;;;;;;;;;;5054013;28;20206;-53
2022/06/30 09:36:17;;;;;;;4.90;4.40;;;;;;;;;;5054196;28;20256;-53
2022/06/30 09:38:57;;;;;;;4.40;4.10;;;;;;;;;;5054458;28;20672;-54
2022/06/30 09:41:27;;;;;;;5.30;4.10;;;;;;;;;;5052374;28;20221;-54
2022/06/30 09:43:53;;;;;;;6.47;4.10;;;;;;;;;;5054266;28;20204;-54
2022/06/30 09:46:19;;;;;;;5.90;4.20;;;;;;;;;;5054035;28;20195;-54
2022/06/30 09:48:45;;;;;;;5.67;4.03;;;;;;;;;;5054197;28;20571;-54
2022/06/30 09:51:12;;;;;;;5.10;4.50;;;;;;;;;;5053995;28;20203;-54
2022/06/30 09:53:38;;;;;;;4.50;4.10;;;;;;;;;;5054098;28;20201;-54
2022/06/30 09:56:11;;;;;;;6.30;3.90;;;;;;;;;;5054127;28;20940;-54
2022/06/30 09:58:42;;;;;;;4.80;4.40;;;;;;;;;;5054026;28;20229;-54
2022/06/30 10:01:08;;;;;;;5.27;4.20;;;;;;;;;;5054008;28;20196;-54
2022/06/30 10:03:34;;;;;;;4.63;4.23;;;;;;;;;;5053161;28;20249;-54
2022/06/30 10:06:10;;;;;;;5.57;4.40;;;;;;;;;;5053373;28;20294;-54
2022/06/30 10:08:37;;;;;;;5.90;4.10;;;;;;;;;;5053806;28;20278;-55
2022/06/30 10:11:03;;;;;;;6.20;4.10;;;;;;;;;;5052216;28;20204;-54
2022/06/30 10:13:34;;;;;;;4.03;3.60;;;;;;;;;;5053494;28;20204;-55
2022/06/30 10:16:02;;;;;;;4.60;4.20;;;;;;;;;;5053632;28;20204;-54
2022/06/30 10:18:29;;;;;;;7.07;4.10;;;;;;;;;;5053262;28;20254;-53
2022/06/30 10:20:55;;;;;;;4.10;3.70;;;;;;;;;;5053232;28;20207;-55
2022/06/30 10:23:42;;;;;;;4.63;4.13;;;;;;;;;;5053217;28;20617;-54
2022/06/30 10:27:12;;;;;;;4.17;3.37;;;;;;;;;;5050157;28;20630;-56
2022/06/30 10:28:56;;;;;;;4.27;3.87;;;;;;;;;;5053092;28;20224;-55
2022/06/30 10:31:24;;;;;;;4.37;3.83;;;;;;;;;;5053064;28;20282;-54
2022/06/30 10:33:56;;;;;;;5.70;4.00;;;;;;;;;;5052996;28;20209;-54
2022/06/30 10:36:26;;;;;;;5.73;3.90;;;;;;;;;;5052610;28;20234;-55
2022/06/30 10:38:54;;;;;;;4.93;3.97;;;;;;;;;;5052868;28;20567;-56
2022/06/30 10:41:22;;;;;;;5.40;3.90;;;;;;;;;;5052518;28;20731;-55
2022/06/30 10:44:06;;;;;;;5.27;4.13;;;;;;;;;;5052922;28;20203;-55
2022/06/30 10:46:35;;;;;;;4.13;3.83;;;;;;;;;;5052587;28;20216;-55
2022/06/30 10:49:07;;;;;;;4.93;3.73;;;;;;;;;;5052601;28;20218;-55
2022/06/30 10:51:33;;;;;;;4.30;4.00;;;;;;;;;;5052758;28;20292;-55
2022/06/30 10:53:59;;;;;;;6.43;3.87;;;;;;;;;;5052535;28;20221;-55
2022/06/30 10:56:45;;;;;;;4.20;3.80;;;;;;;;;;5052675;28;20203;-55
2022/06/30 10:59:15;;;;;;;5.20;4.03;;;;;;;;;;5052504;28;20667;-55
2022/06/30 11:02:04;;;;;;;4.00;3.60;;;;;;;;;;5052558;28;20262;-55
2022/06/30 11:04:31;;;;;;;4.53;3.60;;;;;;;;;;5052191;28;20199;-55
2022/06/30 11:06:58;;;;;;;3.97;3.50;;;;;;;;;;5052435;28;20251;-55
2022/06/30 11:09:43;;;;;;;8.47;4.27;;;;;;;;;;5052302;28;20229;-55
2022/06/30 11:12:09;;;;;;;5.10;4.00;;;;;;;;;;5052143;28;20767;-55
2022/06/30 11:14:35;;;;;;;4.80;3.80;;;;;;;;;;5051921;28;20275;-55
2022/06/30 11:17:12;;;;;;;4.57;3.60;;;;;;;;;;5051769;28;20294;-54
2022/06/30 11:19:38;;;;;;;5.60;3.87;;;;;;;;;;5052347;28;20205;-54
2022/06/30 11:22:05;;;;;;;8.53;3.77;;;;;;;;;;5051986;28;20198;-55
2022/06/30 11:24:33;;;;;;;4.90;3.77;;;;;;;;;;5051905;28;20230;-55
2022/06/30 11:27:18;;;;;;;4.43;3.80;;;;;;;;;;5051835;28;20215;-54
2022/06/30 11:29:45;;;;;;;3.93;3.40;;;;;;;;;;5052024;28;20199;-55
2022/06/30 11:32:13;;;;;;;5.10;3.60;;;;;;;;;;5051764;28;20610;-55
2022/06/30 11:34:40;;;;;;;4.93;3.80;;;;;;;;;;5050752;28;20417;-55
2022/06/30 11:37:07;;;;;;;3.83;3.50;;;;;;;;;;5051690;28;20242;-55
2022/06/30 11:39:33;;;;;;;4.80;3.90;;;;;;;;;;5051755;28;20201;-54
2022/06/30 11:42:00;;;;;;;4.10;3.70;;;;;;;;;;5051611;28;20194;-55
2022/06/30 11:44:26;;;;;;;3.80;3.50;;;;;;;;;;5051638;28;20228;-56
2022/06/30 11:46:54;;;;;;;3.93;3.47;;;;;;;;;;5051579;28;20193;-55
2022/06/30 11:49:22;;;;;;;4.20;3.80;;;;;;;;;;5051503;28;20199;-55
2022/06/30 11:51:48;;;;;;;5.03;3.75;;;;;;;;;;5050218;28;20409;-54
2022/06/30 11:54:14;;;;;;;5.03;3.90;;;;;;;;;;5051654;28;20199;-55
2022/06/30 11:56:44;;;;;;;5.85;3.78;;;;;;;;;;5050369;28;20401;-55
2022/06/30 11:59:10;;;;;;;4.07;3.50;;;;;;;;;;5051650;28;20208;-56
2022/06/30 12:01:36;;;;;;;4.47;3.43;;;;;;;;;;5050180;28;20455;-55
2022/06/30 12:04:11;;;;;;;4.73;3.53;;;;;;;;;;5051556;28;20638;-56
2022/06/30 12:06:38;;;;;;;6.43;3.50;;;;;;;;;;5052040;28;20195;-56
2022/06/30 12:09:04;;;;;;;3.93;3.53;;;;;;;;;;5051543;28;20269;-56
2022/06/30 12:11:30;;;;;;;4.23;3.33;;;;;;;;;;5051126;28;20633;-55
2022/06/30 12:13:56;;;;;;;5.33;3.67;;;;;;;;;;5051427;28;20248;-56
2022/06/30 12:16:22;;;;;;;8.57;3.60;;;;;;;;;;5051376;28;20252;-54
2022/06/30 12:18:48;;;;;;;6.37;3.90;;;;;;;;;;5051196;28;20601;-56
2022/06/30 12:21:15;;;;;;;6.50;3.30;;;;;;;;;;5051271;28;20210;-55
2022/06/30 12:23:42;;;;;;;3.90;3.23;;;;;;;;;;5051207;28;20282;-54
2022/06/30 12:26:08;;;;;;;4.20;3.40;;;;;;;;;;5050909;28;20223;-55
2022/06/30 12:28:44;;;;;;;4.37;3.30;;;;;;;;;;5053651;28;20286;-55
2022/06/30 12:31:10;;;;;;;4.20;3.30;;;;;;;;;;5054802;28;20238;-55
2022/06/30 12:33:38;;;;;;;4.13;3.73;;;;;;;;;;5055425;28;20201;-55
2022/06/30 12:36:04;;;;;;;4.23;3.83;;;;;;;;;;5055369;28;20755;-55
2022/06/30 12:38:31;;;;;;;6.03;3.70;;;;;;;;;;5055333;28;20603;-57
2022/06/30 12:40:58;;;;;;;5.67;3.63;;;;;;;;;;5055537;28;20211;-56
2022/06/30 12:43:24;;;;;;;6.00;3.50;;;;;;;;;;5055310;28;20218;-55
2022/06/30 12:45:55;;;;;;;5.83;3.63;;;;;;;;;;5055526;28;20196;-56
2022/06/30 12:48:36;;;;;;;6.50;3.60;;;;;;;;;;5055324;28;20264;-55
2022/06/30 12:51:02;;;;;;;4.77;3.43;;;;;;;;;;5053550;28;20609;-56
2022/06/30 12:53:28;;;;;;;7.03;4.00;;;;;;;;;;5055184;28;20188;-55
2022/06/30 12:56:00;;;;;;;6.13;4.00;;;;;;;;;;5055136;28;20216;-55
2022/06/30 12:58:27;;;;;;;4.23;3.50;;;;;;;;;;5054886;28;20231;-56
2022/06/30 13:00:56;;;;;;;3.80;3.37;;;;;;;;;;5055357;28;20235;-56
2022/06/30 13:03:22;;;;;;;3.57;3.20;;;;;;;;;;5055232;28;20201;-56
2022/06/30 13:05:48;;;;;;;3.77;3.47;;;;;;;;;;5055119;28;20261;-56
2022/06/30 13:08:14;;;;;;;5.57;3.50;;;;;;;;;;5054929;28;20191;-56
2022/06/30 13:13:25;;;;;;;3.63;3.30;;;;;;;;;;5054820;28;20246;-55
2022/06/30 13:15:51;;;;;;;4.17;3.23;;;;;;;;;;5054953;28;20196;-55
2022/06/30 13:18:17;;;;;;;6.43;3.80;;;;;;;;;;5054723;28;20242;-56
2022/06/30 13:20:43;;;;;;;4.33;3.23;;;;;;;;;;5054915;28;20252;-55
2022/06/30 13:23:09;;;;;;;4.93;3.33;;;;;;;;;;5054828;28;20661;-55
2022/06/30 13:25:35;;;;;;;4.20;3.47;;;;;;;;;;5052626;28;20229;-55
2022/06/30 13:28:01;;;;;;;6.97;3.50;;;;;;;;;;5054358;28;20237;-56
2022/06/30 13:30:28;;;;;;;4.37;3.30;;;;;;;;;;5054128;28;20204;-56
2022/06/30 13:32:55;;;;;;;4.07;3.67;;;;;;;;;;5054206;28;20213;-55
2022/06/30 13:35:21;;;;;;;6.60;4.00;;;;;;;;;;5053775;28;20252;-55
2022/06/30 13:37:46;;;;;;;4.00;3.60;;;;;;;;;;5053845;28;20530;-55
2022/06/30 13:40:13;;;;;;;3.87;3.30;;;;;;;;;;5053977;28;20206;-56
2022/06/30 13:42:38;;;;;;;4.63;3.50;;;;;;;;;;5054029;28;20674;-56
2022/06/30 13:45:05;;;;;;;3.90;3.60;;;;;;;;;;5053888;28;20278;-56
2022/06/30 13:47:33;;;;;;;5.17;3.47;;;;;;;;;;5053856;28;20626;-56
2022/06/30 13:49:59;;;;;;;4.03;3.63;;;;;;;;;;5053717;28;20715;-56
2022/06/30 13:52:25;;;;;;;4.00;3.37;;;;;;;;;;5054050;28;20256;-56
2022/06/30 13:54:51;;;;;;;5.87;3.73;;;;;;;;;;5054165;28;20211;-56
2022/06/30 13:57:17;;;;;;;4.97;4.13;;;;;;;;;;5053822;28;20227;-56
2022/06/30 13:59:43;;;;;;;4.00;3.70;;;;;;;;;;5054041;28;20215;-56
2022/06/30 14:02:09;;;;;;;4.23;3.40;;;;;;;;;;5054013;28;20289;-56
2022/06/30 14:04:36;;;;;;;3.70;3.37;;;;;;;;;;5053529;28;20277;-54
2022/06/30 14:07:03;;;;;;;4.40;4.00;;;;;;;;;;5053604;28;20193;-56
2022/06/30 14:09:32;;;;;;;4.17;3.63;;;;;;;;;;5053766;28;20290;-56
2022/06/30 14:11:58;;;;;;;4.40;4.00;;;;;;;;;;5053666;28;20205;-57
2022/06/30 14:14:27;;;;;;;4.47;4.07;;;;;;;;;;5052485;28;20188;-56
2022/06/30 14:16:55;;;;;;;3.83;3.53;;;;;;;;;;5053703;28;20556;-55
2022/06/30 14:19:21;;;;;;;7.37;4.23;;;;;;;;;;5053562;28;20261;-56
2022/06/30 14:21:49;;;;;;;4.57;3.50;;;;;;;;;;5053690;28;20218;-56
2022/06/30 14:24:16;;;;;;;3.93;3.53;;;;;;;;;;5053723;28;20306;-56
2022/06/30 14:26:42;;;;;;;5.93;4.10;;;;;;;;;;5053550;28;20219;-55
2022/06/30 14:29:09;;;;;;;5.03;3.50;;;;;;;;;;5053592;28;20208;-55
2022/06/30 14:31:35;;;;;;;3.70;3.40;;;;;;;;;;5053356;28;20209;-56
2022/06/30 14:34:01;;;;;;;6.07;4.03;;;;;;;;;;5053409;28;20203;-55
2022/06/30 14:36:27;;;;;;;4.90;4.00;;;;;;;;;;5053217;28;20259;-55
2022/06/30 14:38:55;;;;;;;4.23;3.83;;;;;;;;;;5053214;28;20660;-55
2022/06/30 14:44:05;;;;;;;4.33;3.80;;;;;;;;;;5053203;28;20251;-56
2022/06/30 14:46:31;;;;;;;4.03;3.63;;;;;;;;;;5052848;28;20211;-55
2022/06/30 14:48:57;;;;;;;5.17;3.77;;;;;;;;;;5053266;28;20201;-56
2022/06/30 14:51:23;;;;;;;9.10;4.00;;;;;;;;;;5052119;28;20203;-55
2022/06/30 14:53:49;;;;;;;4.27;3.43;;;;;;;;;;5052988;28;20200;-56
2022/06/30 14:56:17;;;;;;;5.97;3.70;;;;;;;;;;5052966;28;20231;-55
2022/06/30 14:58:43;;;;;;;4.73;3.60;;;;;;;;;;5052767;28;20226;-55